createdAt,value
2023-03-27T00:00:34.404Z,94387.09
2023-03-27T00:03:20.760Z,94378.06
2023-03-27T00:06:16.353Z,94380.34
2023-03-27T00:09:03.845Z,94385.31
2023-03-27T00:11:49.553Z,94378.19
2023-03-27T00:14:36.368Z,94367.72
2023-03-27T00:17:23.010Z,94361.44
2023-03-27T00:20:09.343Z,94347.09
2023-03-27T00:22:59.563Z,94341.56
2023-03-27T00:25:50.895Z,94342.69
2023-03-27T00:28:36.678Z,94331.88
2023-03-27T00:31:22.476Z,94313.97
2023-03-27T00:34:08.740Z,94307.53
2023-03-27T00:36:54.546Z,94298.72
2023-03-27T00:39:41.943Z,94295.34
2023-03-27T00:42:28.277Z,94293.50
2023-03-27T00:45:22.776Z,94283.81
2023-03-27T00:48:09.330Z,94279.66
2023-03-27T00:50:57.411Z,94259.91
2023-03-27T00:53:44.582Z,94261.25
2023-03-27T00:56:30.802Z,94247.47
2023-03-27T00:59:19.908Z,94247.91
2023-03-27T01:02:06.909Z,94254.63
2023-03-27T01:04:53.476Z,94248.97
2023-03-27T01:07:40.760Z,94247.84
2023-03-27T01:11:27.706Z,94242.00
2023-03-27T01:14:16.425Z,94232.97
2023-03-27T01:17:14.837Z,94214.03
2023-03-27T01:20:34.856Z,94200.16
2023-03-27T01:23:59.954Z,94202.94
2023-03-27T01:27:16.370Z,94194.50
2023-03-27T01:30:23.123Z,94189.16
2023-03-27T01:33:40.409Z,94204.72
2023-03-27T01:36:27.465Z,94196.09
2023-03-27T01:39:37.831Z,94187.28
2023-03-27T01:42:30.961Z,94201.44
2023-03-27T01:45:23.880Z,94198.81
2023-03-27T01:48:19.852Z,94174.53
2023-03-27T01:51:22.313Z,94176.97
2023-03-27T01:54:17.281Z,94165.44
2023-03-27T01:57:16.527Z,94162.72
2023-03-27T02:00:17.296Z,94147.59
2023-03-27T02:03:41.697Z,94147.25
2023-03-27T02:06:31.844Z,94143.75
2023-03-27T02:09:17.777Z,94155.44
2023-03-27T02:12:07.664Z,94162.28
2023-03-27T02:14:55.574Z,94161.59
2023-03-27T02:17:48.379Z,94165.09
2023-03-27T02:20:36.974Z,94170.91
2023-03-27T02:23:24.326Z,94157.75
2023-03-27T02:26:12.010Z,94175.56
2023-03-27T02:28:57.717Z,94174.78
2023-03-27T02:31:53.980Z,94166.66
2023-03-27T02:34:58.926Z,94158.53
2023-03-27T02:38:01.299Z,94153.91
2023-03-27T02:41:25.841Z,94147.59
2023-03-27T02:44:46.585Z,94151.00
2023-03-27T02:47:36.387Z,94137.47
2023-03-27T02:50:27.778Z,94145.25
2023-03-27T02:53:22.979Z,94119.91
2023-03-27T02:56:09.381Z,94129.63
2023-03-27T02:59:04.036Z,94113.63
2023-03-27T03:01:55.800Z,94117.22
2023-03-27T03:04:57.178Z,94110.22
2023-03-27T03:07:48.885Z,94114.16
2023-03-27T03:10:35.276Z,94104.09
2023-03-27T03:13:20.906Z,94098.41
2023-03-27T03:16:07.661Z,94085.72
2023-03-27T03:18:53.349Z,94083.44
2023-03-27T03:21:39.866Z,94069.81
2023-03-27T03:24:29.795Z,94067.09
2023-03-27T03:27:21.012Z,94066.31
2023-03-27T03:30:22.131Z,94061.78
2023-03-27T03:33:18.024Z,94050.50
2023-03-27T03:36:04.646Z,94040.94
2023-03-27T03:38:52.824Z,94035.53
2023-03-27T03:41:38.606Z,94003.72
2023-03-27T03:44:24.292Z,93999.50
2023-03-27T03:47:10.116Z,93990.91
2023-03-27T03:49:55.873Z,93980.34
2023-03-27T03:52:42.538Z,93968.78
2023-03-27T03:55:28.460Z,93948.59
2023-03-27T03:58:14.559Z,93929.50
2023-03-27T04:01:00.224Z,93941.47
2023-03-27T04:03:58.045Z,93904.19
2023-03-27T04:06:46.154Z,93894.00
2023-03-27T04:09:32.760Z,93897.78
2023-03-27T04:12:33.624Z,93903.06
2023-03-27T04:15:20.716Z,93904.44
2023-03-27T04:18:32.916Z,93908.56
2023-03-27T04:21:22.374Z,93891.03
2023-03-27T04:24:08.397Z,93897.16
2023-03-27T04:27:04.805Z,93887.47
2023-03-27T04:29:58.710Z,93880.47
2023-03-27T04:32:52.264Z,93883.19
2023-03-27T04:36:06.115Z,93887.03
2023-03-27T04:39:16.700Z,93892.44
2023-03-27T04:42:03.047Z,93884.75
2023-03-27T04:44:52.440Z,93888.34
2023-03-27T04:47:38.727Z,93889.91
2023-03-27T04:50:25.617Z,93903.59
2023-03-27T04:53:11.456Z,93892.75
2023-03-27T04:56:03.608Z,93903.75
2023-03-27T04:58:53.035Z,93899.13
2023-03-27T05:01:38.999Z,93888.28
2023-03-27T05:04:32.154Z,93887.59
2023-03-27T05:07:34.373Z,93864.00
2023-03-27T05:10:23.039Z,93853.59
2023-03-27T05:13:10.288Z,93835.09
2023-03-27T05:15:55.998Z,93821.25
2023-03-27T05:18:45.255Z,93818.97
2023-03-27T05:21:31.100Z,93804.28
2023-03-27T05:24:16.906Z,93812.09
2023-03-27T05:27:04.736Z,93815.25
2023-03-27T05:29:51.370Z,93821.53
2023-03-27T05:32:38.148Z,93802.84
2023-03-27T05:35:34.737Z,93835.19
2023-03-27T05:38:22.822Z,93840.25
2023-03-27T05:41:28.882Z,93847.59
2023-03-27T05:44:14.811Z,93848.81
2023-03-27T05:47:03.679Z,93847.94
2023-03-27T05:49:50.867Z,93858.00
2023-03-27T05:52:36.600Z,93876.69
2023-03-27T05:55:22.820Z,93891.50
2023-03-27T05:58:11.888Z,93891.50
2023-03-27T06:00:58.635Z,93887.63
2023-03-27T06:03:56.321Z,93876.81
2023-03-27T06:06:55.576Z,93869.09
2023-03-27T06:09:41.466Z,93848.88
2023-03-27T06:13:06.657Z,93842.72
2023-03-27T06:16:20.956Z,93842.00
2023-03-27T06:19:36.837Z,93842.91
2023-03-27T06:22:23.606Z,93839.50
2023-03-27T06:25:10.464Z,93843.84
2023-03-27T06:27:56.789Z,93851.66
2023-03-27T06:30:43.000Z,93843.25
2023-03-27T06:33:52.155Z,93855.69
2023-03-27T06:37:05.637Z,93870.47
2023-03-27T06:39:58.138Z,93849.03
2023-03-27T06:42:54.276Z,93863.38
2023-03-27T06:45:50.934Z,93863.03
2023-03-27T06:48:55.613Z,93854.91
2023-03-27T06:51:48.932Z,93841.06
2023-03-27T06:54:35.704Z,93852.88
2023-03-27T06:57:21.879Z,93842.13
2023-03-27T07:00:17.040Z,93867.81
2023-03-27T07:03:26.243Z,93869.56
2023-03-27T07:06:11.949Z,93866.09
2023-03-27T07:09:23.885Z,93878.19
2023-03-27T07:12:20.830Z,93868.19
2023-03-27T07:15:08.279Z,93877.47
2023-03-27T07:18:00.521Z,93893.31
2023-03-27T07:20:48.113Z,93913.78
2023-03-27T07:23:36.787Z,93901.50
2023-03-27T07:26:27.082Z,93919.78
2023-03-27T07:29:29.550Z,93923.50
2023-03-27T07:32:25.801Z,93917.88
2023-03-27T07:35:22.048Z,93921.38
2023-03-27T07:38:26.842Z,93920.03
2023-03-27T07:41:38.853Z,93907.72
2023-03-27T07:44:39.422Z,93916.00
2023-03-27T07:47:28.569Z,93942.25
2023-03-27T07:50:19.180Z,93935.56
2023-03-27T07:53:08.582Z,93929.59
2023-03-27T07:56:00.925Z,93936.72
2023-03-27T07:58:47.364Z,93960.22
2023-03-27T08:01:38.689Z,93975.78
2023-03-27T08:04:25.470Z,93989.13
2023-03-27T08:07:25.921Z,94022.69
2023-03-27T08:10:20.825Z,94037.47
2023-03-27T08:13:18.495Z,94048.31
2023-03-27T08:16:05.639Z,94089.03
2023-03-27T08:18:51.755Z,94100.81
2023-03-27T08:21:37.446Z,94123.13
2023-03-27T08:24:23.175Z,94118.78
2023-03-27T08:27:29.345Z,94137.09
2023-03-27T08:30:17.028Z,94141.34
2023-03-27T08:33:03.864Z,94139.78
2023-03-27T08:35:51.287Z,94146.63
2023-03-27T08:38:39.603Z,94149.81
2023-03-27T08:41:43.353Z,94141.41
2023-03-27T08:44:35.560Z,94124.88
2023-03-27T08:47:44.503Z,94131.31
2023-03-27T08:50:41.581Z,94116.94
2023-03-27T08:53:52.071Z,94141.88
2023-03-27T08:56:43.022Z,94152.50
2023-03-27T08:59:31.480Z,94160.81
2023-03-27T09:02:40.793Z,94163.28
2023-03-27T09:05:42.596Z,94169.59
2023-03-27T09:08:34.899Z,94141.59
2023-03-27T09:11:54.756Z,94143.50
2023-03-27T09:14:56.786Z,94134.63
2023-03-27T09:18:02.187Z,94122.03
2023-03-27T09:21:04.824Z,94127.03
2023-03-27T09:23:54.170Z,94119.19
2023-03-27T09:27:32.652Z,94088.03
2023-03-27T09:30:37.599Z,94060.06
2023-03-27T09:33:33.598Z,94055.34
2023-03-27T09:36:19.465Z,94034.44
2023-03-27T09:39:08.186Z,94026.44
2023-03-27T09:42:20.295Z,94022.97
2023-03-27T09:45:08.106Z,94024.88
2023-03-27T09:48:36.241Z,94028.56
2023-03-27T09:51:53.920Z,94028.47
2023-03-27T09:54:53.954Z,93968.38
2023-03-27T09:57:49.174Z,94001.50
2023-03-27T10:00:36.530Z,93986.00
2023-03-27T10:03:24.852Z,93966.78
2023-03-27T10:06:44.643Z,93922.88
2023-03-27T10:09:41.077Z,93934.44
2023-03-27T10:12:30.733Z,93948.81
2023-03-27T10:15:44.783Z,93991.41
2023-03-27T10:18:48.148Z,94018.81
2023-03-27T10:21:42.103Z,93997.13
2023-03-27T10:24:36.005Z,94013.50
2023-03-27T10:27:35.949Z,93998.88
2023-03-27T10:30:41.007Z,93990.25
2023-03-27T10:33:47.436Z,93981.59
2023-03-27T10:37:05.043Z,93980.03
2023-03-27T10:39:53.056Z,93990.59
2023-03-27T10:42:51.007Z,94002.72
2023-03-27T10:45:49.907Z,94006.31
2023-03-27T10:48:48.098Z,94016.19
2023-03-27T10:51:53.567Z,94011.06
2023-03-27T10:54:59.528Z,94005.66
2023-03-27T10:57:52.585Z,94006.13
2023-03-27T11:00:46.734Z,94016.47
2023-03-27T11:03:40.071Z,94026.00
2023-03-27T11:06:32.420Z,94016.88
2023-03-27T11:09:24.582Z,94021.28
2023-03-27T11:12:39.121Z,94014.63
2023-03-27T11:15:29.376Z,94021.56
2023-03-27T11:18:28.947Z,94027.81
2023-03-27T11:21:43.971Z,94034.53
2023-03-27T11:24:35.113Z,94042.81
2023-03-27T11:27:38.510Z,94030.34
2023-03-27T11:30:24.826Z,94017.56
2023-03-27T11:33:42.088Z,94010.22
2023-03-27T11:36:39.828Z,93993.19
2023-03-27T11:39:55.340Z,93984.72
2023-03-27T11:42:43.845Z,93981.44
2023-03-27T11:45:54.107Z,93973.28
2023-03-27T11:48:58.391Z,93969.78
2023-03-27T11:51:59.642Z,93966.16
2023-03-27T11:55:51.746Z,93962.75
2023-03-27T11:59:08.156Z,93959.44
2023-03-27T12:01:57.840Z,93963.56
2023-03-27T12:04:50.503Z,93957.72
2023-03-27T12:07:59.742Z,93955.53
2023-03-27T12:10:49.124Z,93936.72
2023-03-27T12:14:02.643Z,93942.63
2023-03-27T12:17:05.164Z,93937.44
2023-03-27T12:20:19.145Z,93942.81
2023-03-27T12:23:37.796Z,93921.25
2023-03-27T12:26:57.747Z,93921.47
2023-03-27T12:30:18.168Z,93922.19
2023-03-27T12:33:32.392Z,93913.22
2023-03-27T12:36:20.894Z,93903.47
2023-03-27T12:39:20.180Z,93902.63
2023-03-27T12:42:22.827Z,93901.66
2023-03-27T12:45:18.451Z,93905.19
2023-03-27T12:48:11.827Z,93910.00
2023-03-27T12:51:12.929Z,93895.88
2023-03-27T12:53:59.513Z,93891.31
2023-03-27T12:57:25.082Z,93885.25
2023-03-27T13:00:28.067Z,93882.31
2023-03-27T13:03:53.564Z,93881.97
2023-03-27T13:07:06.321Z,93875.13
2023-03-27T13:10:32.174Z,93875.66
2023-03-27T13:13:32.645Z,93869.50
2023-03-27T13:16:39.150Z,93872.19
2023-03-27T13:19:48.212Z,93877.97
2023-03-27T13:23:06.627Z,93885.22
2023-03-27T13:26:10.576Z,93881.50
2023-03-27T13:29:01.590Z,93876.84
2023-03-27T13:31:49.608Z,93871.19
2023-03-27T13:35:01.812Z,93871.19
2023-03-27T13:37:51.916Z,93865.47
2023-03-27T13:40:46.106Z,93867.84
2023-03-27T13:43:36.084Z,93861.38
2023-03-27T13:46:30.998Z,93858.22
2023-03-27T13:49:46.971Z,93857.00
2023-03-27T13:52:48.324Z,93842.34
2023-03-27T13:56:20.288Z,93833.00
2023-03-27T14:00:37.617Z,93841.28
2023-03-27T14:03:54.740Z,93840.38
2023-03-27T14:06:58.718Z,93845.25
2023-03-27T14:10:15.787Z,93834.78
2023-03-27T14:13:07.623Z,93828.66
2023-03-27T14:16:28.277Z,93821.81
2023-03-27T14:20:00.571Z,93830.13
2023-03-27T14:23:04.808Z,93828.06
2023-03-27T14:26:20.001Z,93817.72
2023-03-27T14:29:07.098Z,93825.63
2023-03-27T14:32:06.100Z,93822.50
2023-03-27T14:34:54.791Z,93834.47
2023-03-27T14:38:07.896Z,93820.00
2023-03-27T14:41:01.551Z,93813.34
2023-03-27T14:44:06.179Z,93815.81
2023-03-27T14:47:04.953Z,93811.78
2023-03-27T14:49:56.759Z,93809.66
2023-03-27T14:52:57.822Z,93810.97
2023-03-27T14:55:48.611Z,93802.09
2023-03-27T14:58:54.872Z,93799.75
2023-03-27T15:01:42.088Z,93789.59
2023-03-27T15:04:30.316Z,93795.81
2023-03-27T15:07:21.084Z,93798.47
2023-03-27T15:10:31.737Z,93787.88
2023-03-27T15:13:37.889Z,93792.09
2023-03-27T15:16:30.033Z,93790.09
2023-03-27T15:19:21.855Z,93793.94
2023-03-27T15:22:33.749Z,93804.00
2023-03-27T15:25:46.296Z,93821.81
2023-03-27T15:28:41.869Z,93845.84
2023-03-27T15:31:30.210Z,93869.06
2023-03-27T15:34:35.222Z,93898.13
2023-03-27T15:37:25.859Z,93914.53
2023-03-27T15:40:15.623Z,93910.72
2023-03-27T15:43:05.521Z,93913.94
2023-03-27T15:45:57.136Z,93918.47
2023-03-27T15:48:48.352Z,93946.59
2023-03-27T15:51:34.227Z,93935.47
2023-03-27T15:54:29.261Z,93947.59
2023-03-27T15:57:16.152Z,93963.41
2023-03-27T16:00:08.973Z,93946.41
2023-03-27T16:03:23.072Z,93939.13
2023-03-27T16:06:10.488Z,93944.03
2023-03-27T16:08:57.198Z,93939.34
2023-03-27T16:11:48.676Z,93930.59
2023-03-27T16:14:44.161Z,93942.19
2023-03-27T16:17:44.779Z,93938.63
2023-03-27T16:20:34.282Z,93935.56
2023-03-27T16:23:20.241Z,93945.66
2023-03-27T16:26:07.323Z,93950.34
2023-03-27T16:29:00.754Z,93951.53
2023-03-27T16:31:46.529Z,93954.97
2023-03-27T16:34:32.113Z,93955.25
2023-03-27T16:37:23.681Z,93962.63
2023-03-27T16:40:11.625Z,93973.47
2023-03-27T16:42:57.733Z,93981.13
2023-03-27T16:45:44.947Z,93980.94
2023-03-27T16:48:31.232Z,94006.88
2023-03-27T16:51:18.068Z,94001.94
2023-03-27T16:54:03.985Z,94012.66
2023-03-27T16:56:52.265Z,94001.28
2023-03-27T16:59:38.358Z,94002.28
2023-03-27T17:02:25.591Z,94008.91
2023-03-27T17:05:11.994Z,94019.81
2023-03-27T17:07:57.843Z,94012.16
2023-03-27T17:10:45.002Z,94021.25
2023-03-27T17:13:32.850Z,94042.25
2023-03-27T17:16:19.838Z,94040.22
2023-03-27T17:19:06.337Z,94051.00
2023-03-27T17:21:54.183Z,94048.28
2023-03-27T17:24:55.205Z,94075.91
2023-03-27T17:27:41.568Z,94078.59
2023-03-27T17:30:37.302Z,94097.06
2023-03-27T17:33:28.633Z,94100.78
2023-03-27T17:36:21.656Z,94120.22
2023-03-27T17:39:13.710Z,94125.63
2023-03-27T17:41:59.459Z,94146.75
2023-03-27T17:44:46.321Z,94143.13
2023-03-27T17:47:33.273Z,94147.88
2023-03-27T17:50:19.420Z,94151.69
2023-03-27T17:53:05.362Z,94154.38
2023-03-27T17:55:52.076Z,94162.47
2023-03-27T17:58:39.157Z,94155.50
2023-03-27T18:01:26.618Z,94158.38
2023-03-27T18:04:12.741Z,94159.88
2023-03-27T18:06:58.861Z,94175.69
2023-03-27T18:09:44.852Z,94188.25
2023-03-27T18:12:33.752Z,94200.09
2023-03-27T18:15:19.311Z,94206.75
2023-03-27T18:18:05.477Z,94206.97
2023-03-27T18:20:52.348Z,94208.72
2023-03-27T18:23:45.905Z,94211.75
2023-03-27T18:26:33.299Z,94222.09
2023-03-27T18:29:21.268Z,94213.88
2023-03-27T18:32:07.329Z,94225.28
2023-03-27T18:34:53.185Z,94229.56
2023-03-27T18:37:39.478Z,94235.59
2023-03-27T18:40:25.827Z,94236.69
2023-03-27T18:43:13.749Z,94239.06
2023-03-27T18:46:04.353Z,94246.38
2023-03-27T18:48:50.921Z,94252.53
2023-03-27T18:51:36.927Z,94244.34
2023-03-27T18:54:23.212Z,94264.44
2023-03-27T18:57:09.319Z,94260.50
2023-03-27T18:59:55.339Z,94255.13
2023-03-27T19:02:41.199Z,94264.31
2023-03-27T19:05:51.360Z,94254.19
2023-03-27T19:08:50.112Z,94267.84
2023-03-27T19:12:02.132Z,94272.94
2023-03-27T19:15:19.322Z,94286.88
2023-03-27T19:18:28.405Z,94283.91
2023-03-27T19:21:37.140Z,94288.34
2023-03-27T19:24:35.496Z,94290.09
2023-03-27T19:27:23.241Z,94284.06
2023-03-27T19:30:12.442Z,94296.69
2023-03-27T19:32:58.419Z,94300.03
2023-03-27T19:35:44.706Z,94314.75
2023-03-27T19:38:32.187Z,94314.75
2023-03-27T19:41:18.189Z,94313.97
2023-03-27T19:44:04.334Z,94321.38
2023-03-27T19:46:50.529Z,94314.44
2023-03-27T19:49:36.953Z,94316.03
2023-03-27T19:52:42.716Z,94314.16
2023-03-27T19:55:28.538Z,94321.78
2023-03-27T19:58:14.535Z,94328.47
2023-03-27T20:01:00.600Z,94330.53
2023-03-27T20:03:46.569Z,94318.38
2023-03-27T20:06:34.055Z,94339.59
2023-03-27T20:09:20.399Z,94350.97
2023-03-27T20:12:06.805Z,94352.72
2023-03-27T20:15:03.573Z,94360.00
2023-03-27T20:18:00.301Z,94357.63
2023-03-27T20:20:47.839Z,94368.41
2023-03-27T20:23:33.651Z,94386.13
2023-03-27T20:26:24.208Z,94382.66
2023-03-27T20:29:20.471Z,94390.59
2023-03-27T20:32:08.280Z,94414.97
2023-03-27T20:34:54.786Z,94412.44
2023-03-27T20:37:41.910Z,94404.22
2023-03-27T20:40:53.272Z,94413.56
2023-03-27T20:43:49.990Z,94436.63
2023-03-27T20:46:36.206Z,94439.97
2023-03-27T20:49:40.190Z,94431.06
2023-03-27T20:52:28.480Z,94442.75
2023-03-27T20:55:22.813Z,94443.66
2023-03-27T20:58:18.285Z,94448.81
2023-03-27T21:01:06.947Z,94457.94
2023-03-27T21:03:54.087Z,94456.63
2023-03-27T21:06:40.815Z,94466.59
2023-03-27T21:09:27.577Z,94455.13
2023-03-27T21:12:13.673Z,94483.22
2023-03-27T21:14:59.664Z,94478.28
2023-03-27T21:17:45.503Z,94479.31
2023-03-27T21:20:32.732Z,94480.56
2023-03-27T21:23:20.824Z,94500.19
2023-03-27T21:26:07.029Z,94508.66
2023-03-27T21:28:52.925Z,94518.53
2023-03-27T21:31:39.683Z,94525.72
2023-03-27T21:34:25.870Z,94528.94
2023-03-27T21:37:12.037Z,94539.06
2023-03-27T21:39:57.582Z,94565.47
2023-03-27T21:42:43.492Z,94570.75
2023-03-27T21:45:29.211Z,94558.06
2023-03-27T21:48:15.142Z,94553.13
2023-03-27T21:51:02.431Z,94561.38
2023-03-27T21:53:48.390Z,94566.22
2023-03-27T21:56:34.174Z,94590.13
2023-03-27T21:59:19.991Z,94604.53
2023-03-27T22:02:05.746Z,94600.44
2023-03-27T22:04:51.702Z,94580.28
2023-03-27T22:07:37.389Z,94621.16
2023-03-27T22:10:23.155Z,94610.63
2023-03-27T22:13:09.172Z,94646.50
2023-03-27T22:15:54.959Z,94608.59
2023-03-27T22:18:41.429Z,94601.06
2023-03-27T22:21:29.427Z,94605.41
2023-03-27T22:24:15.504Z,94599.66
2023-03-27T22:27:01.134Z,94600.22
2023-03-27T22:29:46.856Z,94626.00
2023-03-27T22:32:32.757Z,94614.63
2023-03-27T22:35:18.822Z,94624.09
2023-03-27T22:38:04.785Z,94613.00
2023-03-27T22:40:50.371Z,94658.09
2023-03-27T22:43:36.216Z,94667.34
2023-03-27T22:46:23.407Z,94670.41
2023-03-27T22:49:09.375Z,94695.38
2023-03-27T22:51:55.308Z,94694.00
2023-03-27T22:54:41.690Z,94719.94
2023-03-27T22:57:27.657Z,94746.69
2023-03-27T23:00:13.905Z,94778.78
2023-03-27T23:02:59.915Z,94767.59
2023-03-27T23:05:50.943Z,94779.91
2023-03-27T23:08:36.989Z,94798.63
2023-03-27T23:11:23.138Z,94798.47
2023-03-27T23:14:08.799Z,94780.03
2023-03-27T23:16:54.673Z,94799.28
2023-03-27T23:19:40.990Z,94799.38
2023-03-27T23:22:26.838Z,94792.06
2023-03-27T23:25:13.814Z,94802.53
2023-03-27T23:27:59.747Z,94833.53
2023-03-27T23:30:56.853Z,94825.56
2023-03-27T23:33:45.215Z,94823.97
2023-03-27T23:36:31.221Z,94843.72
2023-03-27T23:39:16.901Z,94853.31
2023-03-27T23:42:02.725Z,94861.56
2023-03-27T23:44:48.522Z,94856.47
2023-03-27T23:47:34.379Z,94842.59
2023-03-27T23:50:20.022Z,94855.44
2023-03-27T23:53:05.888Z,94864.78
2023-03-27T23:55:52.688Z,94874.22
2023-03-27T23:58:38.873Z,94849.38
